Time;durP1;ratioP1;P1;durP2;ratioP2;P2;SDS_P1;SDS_P2;PMS_P1;PMS_P2;Temp;Humidity;BMP_temperature;BMP_pressure;BME280_temperature;BME280_humidity;BME280_pressure;Samples;Min_cycle;Max_cycle;Signal;HPM_P1;HPM_P2
2022/09/02 00:02:15;;;;;;;0.60;0.20;;;19.10;52.80;;;;;;5039818;28;20067;-89
2022/09/02 00:04:41;;;;;;;0.90;0.22;;;19.10;52.80;;;;;;5058711;28;20029;-84
2022/09/02 00:07:07;;;;;;;0.82;0.22;;;19.00;52.90;;;;;;5055729;28;20395;-85
2022/09/02 00:09:32;;;;;;;2.30;0.30;;;19.00;53.00;;;;;;5055408;28;20024;-83
2022/09/02 00:11:58;;;;;;;1.95;0.30;;;19.00;53.10;;;;;;5072783;28;20032;-82
2022/09/02 00:14:29;;;;;;;3.47;0.20;;;19.00;53.20;;;;;;5072491;28;20040;-82
2022/09/02 00:16:55;;;;;;;1.30;0.30;;;19.00;53.30;;;;;;5071948;28;20032;-82
2022/09/02 00:19:24;;;;;;;1.58;0.20;;;18.90;54.00;;;;;;5071647;28;20036;-82
2022/09/02 00:21:51;;;;;;;0.70;0.30;;;18.90;53.40;;;;;;5071733;28;20543;-83
2022/09/02 00:24:17;;;;;;;1.98;0.32;;;18.90;53.40;;;;;;5054939;28;20029;-83
2022/09/02 00:26:44;;;;;;;0.90;0.32;;;18.90;53.60;;;;;;5072397;28;20028;-83
2022/09/02 00:29:10;;;;;;;3.42;0.30;;;18.80;53.60;;;;;;5055169;28;20028;-84
2022/09/02 00:31:36;;;;;;;3.60;0.38;;;18.80;53.80;;;;;;5071578;28;20491;-84
2022/09/02 00:34:03;;;;;;;1.83;0.30;;;18.80;53.90;;;;;;5073200;28;20067;-85
2022/09/02 00:36:29;;;;;;;1.65;0.40;;;18.80;53.80;;;;;;5072672;28;20071;-85
2022/09/02 00:38:55;;;;;;;1.75;0.32;;;18.80;53.80;;;;;;5071868;28;20021;-84
2022/09/02 00:41:25;;;;;;;1.73;0.20;;;18.70;53.80;;;;;;5071928;28;20039;-85
2022/09/02 00:43:57;;;;;;;3.05;0.40;;;18.70;54.00;;;;;;5071914;28;20025;-84
2022/09/02 00:46:26;;;;;;;0.77;0.20;;;18.70;54.00;;;;;;5072885;28;20051;-86
2022/09/02 00:49:07;;;;;;;0.60;0.20;;;18.60;54.10;;;;;;5071354;28;20043;-86
2022/09/02 00:51:47;;;;;;;0.57;0.20;;;18.70;54.20;;;;;;5072699;28;20031;-85
2022/09/02 00:54:15;;;;;;;2.15;0.28;;;18.60;54.20;;;;;;5072003;28;20021;-86
2022/09/02 00:56:44;;;;;;;5.07;0.50;;;18.60;54.10;;;;;;5072874;28;20028;-86
2022/09/02 00:59:15;;;;;;;2.10;0.40;;;18.60;54.10;;;;;;5071787;28;20118;-86
2022/09/02 01:01:41;;;;;;;1.40;0.30;;;18.60;54.30;;;;;;5073844;28;20108;-85
2022/09/02 01:04:06;;;;;;;2.25;0.30;;;18.60;54.40;;;;;;5076544;28;20068;-86
2022/09/02 01:06:32;;;;;;;4.38;0.20;;;18.50;54.40;;;;;;5079214;28;20139;-84
2022/09/02 01:09:10;;;;;;;1.02;0.30;;;18.50;54.40;;;;;;5062684;28;20044;-84
2022/09/02 01:11:43;;;;;;;1.38;0.30;;;18.50;54.40;;;;;;5080804;28;20027;-84
2022/09/02 01:14:12;;;;;;;4.40;0.35;;;18.50;54.50;;;;;;5076600;28;20033;-82
2022/09/02 01:16:42;;;;;;;1.70;0.20;;;18.40;54.60;;;;;;5073358;28;20111;-85
2022/09/02 01:19:18;;;;;;;1.67;0.32;;;18.40;54.70;;;;;;5071707;28;20028;-85
2022/09/02 01:21:47;;;;;;;2.65;0.30;;;18.40;55.00;;;;;;5071756;28;20361;-84
2022/09/02 01:24:13;;;;;;;1.55;0.30;;;18.40;55.00;;;;;;5071609;28;20029;-84
2022/09/02 01:26:38;;;;;;;1.63;0.30;;;18.30;54.90;;;;;;5074129;28;20040;-83
2022/09/02 01:29:04;;;;;;;0.77;0.20;;;18.30;55.00;;;;;;5058203;28;20032;-82
2022/09/02 01:31:29;;;;;;;1.02;0.28;;;18.30;55.10;;;;;;5058491;28;20024;-84
2022/09/02 01:33:56;;;;;;;4.68;0.32;;;18.30;55.10;;;;;;5075042;28;20127;-84
2022/09/02 01:36:22;;;;;;;0.95;0.20;;;18.20;55.30;;;;;;5058744;28;20032;-87
2022/09/02 01:38:48;;;;;;;1.15;0.20;;;18.20;55.40;;;;;;5074750;28;20078;-85
2022/09/02 01:41:13;;;;;;;3.00;0.45;;;18.20;55.30;;;;;;5074841;28;20033;-84
2022/09/02 01:43:39;;;;;;;1.65;0.30;;;18.20;55.90;;;;;;5074559;28;20025;-84
2022/09/02 01:46:05;;;;;;;1.27;0.30;;;18.10;55.40;;;;;;5074873;28;20059;-84
2022/09/02 01:48:30;;;;;;;1.17;0.30;;;18.10;55.40;;;;;;5058289;28;20070;-85
2022/09/02 01:50:59;;;;;;;1.42;0.30;;;18.10;55.50;;;;;;5057930;28;20437;-84
2022/09/02 01:53:26;;;;;;;1.50;0.20;;;18.10;55.50;;;;;;5074855;28;20454;-84
2022/09/02 01:55:52;;;;;;;1.35;0.30;;;18.10;55.70;;;;;;5073921;28;20020;-83
2022/09/02 01:58:18;;;;;;;0.75;0.30;;;18.00;55.70;;;;;;5074684;28;20101;-83
2022/09/02 02:00:44;;;;;;;2.80;0.30;;;18.00;55.80;;;;;;5074718;28;20472;-84
2022/09/02 02:03:10;;;;;;;0.63;0.17;;;18.00;55.80;;;;;;5074590;28;20382;-84
2022/09/02 02:05:36;;;;;;;1.38;0.30;;;18.00;55.90;;;;;;5075620;28;20021;-83
2022/09/02 02:08:03;;;;;;;1.15;0.40;;;18.00;55.90;;;;;;5076504;28;20060;-84
2022/09/02 02:10:29;;;;;;;2.58;0.32;;;18.00;56.00;;;;;;5075064;28;20033;-84
2022/09/02 02:12:54;;;;;;;3.67;0.20;;;17.90;56.00;;;;;;5058273;28;20377;-85
2022/09/02 02:15:21;;;;;;;0.77;0.20;;;17.90;56.10;;;;;;5063830;28;20032;-83
2022/09/02 02:17:47;;;;;;;1.02;0.30;;;17.90;56.00;;;;;;5061394;28;20032;-84
2022/09/02 02:20:15;;;;;;;1.63;0.30;;;17.90;56.10;;;;;;5077125;28;20029;-84
2022/09/02 02:22:42;;;;;;;1.25;0.40;;;17.90;56.20;;;;;;5076425;28;20472;-85
2022/09/02 02:25:08;;;;;;;1.17;0.30;;;17.90;56.30;;;;;;5077013;28;20103;-85
2022/09/02 02:27:34;;;;;;;2.90;0.40;;;17.90;56.10;;;;;;5077014;28;20115;-83
2022/09/02 02:30:00;;;;;;;0.73;0.28;;;17.90;56.10;;;;;;5078027;28;20063;-85
2022/09/02 02:32:25;;;;;;;1.77;0.25;;;17.90;56.10;;;;;;5078211;28;20109;-85
2022/09/02 02:34:51;;;;;;;2.80;0.40;;;17.90;56.10;;;;;;5078977;28;20493;-85
2022/09/02 02:37:17;;;;;;;1.63;0.28;;;17.90;56.20;;;;;;5060474;28;20028;-86
2022/09/02 02:39:43;;;;;;;0.95;0.30;;;17.80;56.10;;;;;;5075888;28;20380;-85
2022/09/02 02:42:11;;;;;;;1.38;0.30;;;17.90;56.10;;;;;;5076597;28;20036;-85
2022/09/02 02:44:38;;;;;;;0.65;0.20;;;17.80;56.10;;;;;;5076799;28;20025;-85
2022/09/02 02:47:03;;;;;;;1.95;0.30;;;17.80;56.00;;;;;;5074699;28;20064;-85
2022/09/02 02:49:29;;;;;;;2.92;0.52;;;17.80;56.00;;;;;;5074349;28;20488;-85
2022/09/02 02:51:55;;;;;;;1.20;0.25;;;17.90;56.10;;;;;;5040304;28;20033;-85
2022/09/02 02:54:21;;;;;;;1.05;0.30;;;17.90;56.10;;;;;;5057251;28;20035;-85
2022/09/02 02:56:47;;;;;;;1.90;0.40;;;17.80;56.00;;;;;;5056672;28;20078;-85
2022/09/02 02:59:13;;;;;;;0.85;0.20;;;17.80;56.10;;;;;;5073823;28;20392;-86
2022/09/02 03:01:38;;;;;;;0.60;0.20;;;17.80;56.20;;;;;;5057015;28;20049;-86
2022/09/02 03:04:04;;;;;;;2.53;0.30;;;17.80;56.30;;;;;;5074883;28;20035;-83
2022/09/02 03:06:30;;;;;;;1.02;0.20;;;17.80;56.20;;;;;;5072945;28;20029;-84
2022/09/02 03:08:56;;;;;;;2.22;0.38;;;17.80;56.20;;;;;;5056484;28;20116;-84
2022/09/02 03:11:22;;;;;;;0.65;0.20;;;17.80;56.30;;;;;;5040230;28;20029;-87
2022/09/02 03:13:49;;;;;;;1.23;0.30;;;17.80;56.40;;;;;;5073864;28;20086;-88
2022/09/02 03:16:15;;;;;;;2.25;0.40;;;17.80;56.50;;;;;;5075714;28;20099;-87
2022/09/02 03:18:41;;;;;;;1.48;0.40;;;17.70;56.50;;;;;;5076752;28;20059;-86
2022/09/02 03:21:08;;;;;;;1.33;0.20;;;17.70;56.50;;;;;;5058337;28;20021;-84
2022/09/02 03:23:34;;;;;;;2.53;0.30;;;17.70;56.60;;;;;;5057099;28;20029;-86
2022/09/02 03:26:00;;;;;;;1.33;0.30;;;17.70;56.60;;;;;;5077694;28;20063;-85
2022/09/02 03:28:26;;;;;;;0.93;0.20;;;17.70;56.70;;;;;;5074005;28;20055;-86
2022/09/02 03:30:52;;;;;;;2.33;0.40;;;17.60;56.70;;;;;;5073643;28;20503;-84
2022/09/02 03:33:17;;;;;;;2.15;0.32;;;17.60;56.80;;;;;;5074031;28;20068;-85
2022/09/02 03:35:44;;;;;;;1.50;0.30;;;17.60;56.70;;;;;;5074610;28;20040;-85
2022/09/02 03:38:11;;;;;;;2.30;0.55;;;17.60;56.80;;;;;;5075029;28;20020;-86
2022/09/02 03:40:38;;;;;;;1.50;0.30;;;17.60;57.00;;;;;;5062007;28;20029;-84
2022/09/02 03:43:05;;;;;;;1.48;0.30;;;17.60;57.00;;;;;;5053248;28;20017;-83
2022/09/02 03:45:31;;;;;;;0.98;0.30;;;17.50;57.00;;;;;;5051619;28;20040;-84
2022/09/02 03:47:57;;;;;;;1.38;0.30;;;17.50;57.10;;;;;;5053381;28;20024;-86
2022/09/02 03:50:26;;;;;;;1.05;0.30;;;17.50;57.10;;;;;;5053568;28;20079;-85
2022/09/02 03:52:52;;;;;;;1.80;0.20;;;17.40;57.00;;;;;;5052774;28;20548;-83
2022/09/02 03:55:18;;;;;;;4.43;0.20;;;17.40;57.00;;;;;;5019062;28;20060;-85
2022/09/02 03:57:44;;;;;;;1.58;0.40;;;17.40;57.20;;;;;;5053023;28;20017;-86
2022/09/02 04:00:11;;;;;;;0.82;0.25;;;17.40;57.20;;;;;;5053213;28;20404;-85
2022/09/02 04:02:37;;;;;;;1.90;0.20;;;17.40;57.30;;;;;;5052822;28;20048;-85
2022/09/02 04:05:04;;;;;;;0.98;0.30;;;17.40;57.30;;;;;;5052302;28;20104;-85
2022/09/02 04:07:30;;;;;;;1.05;0.30;;;17.40;57.50;;;;;;5051926;28;20071;-86
2022/09/02 04:09:56;;;;;;;1.83;0.30;;;17.40;57.50;;;;;;5052424;28;20535;-86
2022/09/02 04:12:22;;;;;;;5.85;0.40;;;17.30;57.60;;;;;;5053166;28;20029;-86
2022/09/02 04:14:48;;;;;;;1.27;0.20;;;17.30;57.60;;;;;;5035497;28;20048;-84
2022/09/02 04:17:14;;;;;;;1.67;0.38;;;17.30;57.70;;;;;;5052302;28;20494;-85
2022/09/02 04:19:40;;;;;;;1.88;0.40;;;17.30;57.80;;;;;;5035606;28;20029;-84
2022/09/02 04:22:07;;;;;;;0.70;0.30;;;17.30;57.90;;;;;;5052125;28;20025;-85
2022/09/02 04:24:33;;;;;;;1.02;0.40;;;17.30;57.80;;;;;;5053249;28;20029;-86
2022/09/02 04:26:59;;;;;;;1.50;0.40;;;17.30;57.70;;;;;;5052168;28;20112;-85
2022/09/02 04:29:25;;;;;;;1.13;0.30;;;17.30;57.70;;;;;;5051936;28;20021;-84
2022/09/02 04:31:51;;;;;;;1.85;0.30;;;17.30;57.70;;;;;;5035617;28;20132;-86
2022/09/02 04:34:18;;;;;;;2.30;0.45;;;17.30;57.70;;;;;;5053357;28;20107;-85
2022/09/02 04:36:43;;;;;;;2.30;0.60;;;17.30;57.70;;;;;;5035589;28;20044;-86
2022/09/02 04:39:09;;;;;;;4.35;0.45;;;17.30;57.70;;;;;;5052117;28;20029;-86
2022/09/02 04:41:36;;;;;;;1.90;0.30;;;17.30;57.70;;;;;;5053920;28;20029;-88
2022/09/02 04:44:02;;;;;;;3.67;0.32;;;17.30;57.70;;;;;;5053985;28;20033;-88
2022/09/02 04:46:28;;;;;;;3.13;0.32;;;17.20;57.70;;;;;;5053031;28;20029;-86
2022/09/02 04:48:54;;;;;;;1.48;0.40;;;17.30;57.80;;;;;;5053518;28;20039;-84
2022/09/02 04:51:23;;;;;;;9.30;1.23;;;17.30;57.70;;;;;;5051885;28;20120;-86
2022/09/02 04:53:52;;;;;;;4.45;0.32;;;17.20;57.70;;;;;;5053371;28;20527;-86
2022/09/02 04:56:25;;;;;;;4.80;0.50;;;17.30;57.70;;;;;;5051123;28;20028;-87
2022/09/02 04:58:51;;;;;;;7.07;0.40;;;17.30;57.70;;;;;;5052205;28;20100;-87
2022/09/02 05:01:23;;;;;;;2.33;0.40;;;17.30;57.70;;;;;;5053765;28;20523;-84
2022/09/02 05:03:50;;;;;;;1.50;0.30;;;17.30;57.70;;;;;;5055473;28;20025;-84
2022/09/02 05:06:19;;;;;;;4.55;0.40;;;17.30;57.70;;;;;;5055439;28;20053;-85
2022/09/02 05:08:46;;;;;;;1.00;0.25;;;17.30;57.80;;;;;;5055158;28;20032;-86
2022/09/02 05:11:19;;;;;;;2.55;0.60;;;17.30;57.80;;;;;;5055586;28;20025;-84
2022/09/02 05:13:50;;;;;;;3.10;0.50;;;17.30;57.70;;;;;;5055192;28;20033;-85
2022/09/02 05:16:22;;;;;;;1.77;0.45;;;17.30;57.70;;;;;;5055417;28;20085;-86
2022/09/02 05:18:49;;;;;;;6.68;0.38;;;17.30;57.80;;;;;;5055352;28;20026;-86
2022/09/02 05:21:15;;;;;;;3.78;0.47;;;17.30;57.80;;;;;;5055133;28;20021;-86
2022/09/02 05:23:41;;;;;;;2.00;0.60;;;17.30;57.80;;;;;;5055400;28;20052;-84
2022/09/02 05:26:09;;;;;;;3.95;0.57;;;17.30;57.90;;;;;;5055766;28;20033;-85
2022/09/02 05:28:35;;;;;;;1.48;0.30;;;17.30;58.00;;;;;;5055150;28;20044;-84
2022/09/02 05:31:11;;;;;;;2.05;0.38;;;17.30;57.90;;;;;;5056336;28;20025;-86
2022/09/02 05:33:39;;;;;;;1.98;0.60;;;17.30;57.90;;;;;;5055279;28;20039;-86
2022/09/02 05:36:07;;;;;;;5.97;0.50;;;17.30;57.90;;;;;;5055317;28;20033;-85
2022/09/02 05:38:33;;;;;;;2.17;0.50;;;17.40;57.90;;;;;;5056513;28;20112;-85
2022/09/02 05:41:06;;;;;;;1.50;0.40;;;17.40;58.00;;;;;;5054767;28;20358;-85
2022/09/02 05:43:33;;;;;;;1.73;0.35;;;17.40;58.10;;;;;;5054914;28;20473;-85
2022/09/02 05:46:07;;;;;;;4.28;0.55;;;17.40;58.00;;;;;;5055391;28;20025;-86
2022/09/02 05:51:21;;;;;;;8.90;0.65;;;17.40;58.10;;;;;;5069173;28;20366;-86
2022/09/02 05:53:47;;;;;;;4.47;0.50;;;17.40;57.80;;;;;;5073846;28;20029;-88
2022/09/02 05:56:13;;;;;;;2.35;0.40;;;17.40;57.90;;;;;;5056847;28;20021;-81
2022/09/02 05:58:41;;;;;;;5.97;0.60;;;17.40;58.00;;;;;;5057232;28;20028;-81
2022/09/02 06:01:09;;;;;;;2.95;0.65;;;17.50;58.10;;;;;;5058372;28;20033;-81
2022/09/02 06:03:35;;;;;;;1.67;0.40;;;17.50;58.10;;;;;;5052191;28;20052;-81
2022/09/02 06:06:01;;;;;;;6.05;0.47;;;17.60;58.10;;;;;;5036193;28;20036;-81
2022/09/02 06:08:26;;;;;;;3.47;0.50;;;17.60;58.10;;;;;;5037882;28;20124;-81
2022/09/02 06:10:52;;;;;;;5.22;0.40;;;17.70;58.00;;;;;;5053996;28;20036;-82
2022/09/02 06:13:21;;;;;;;4.55;0.45;;;17.80;58.00;;;;;;5047184;28;20044;-81
2022/09/02 06:15:49;;;;;;;3.05;0.95;;;17.80;58.00;;;;;;5067160;28;20484;-81
2022/09/02 06:18:16;;;;;;;3.60;0.45;;;17.90;57.90;;;;;;5065012;28;20036;-81
2022/09/02 06:20:43;;;;;;;4.03;0.25;;;18.00;57.80;;;;;;5064577;28;20104;-80
2022/09/02 06:23:11;;;;;;;5.13;0.47;;;18.10;57.70;;;;;;5062811;28;20059;-82
2022/09/02 06:25:38;;;;;;;3.70;0.50;;;18.10;58.10;;;;;;5063941;28;20032;-81
2022/09/02 06:28:05;;;;;;;2.67;0.60;;;18.20;57.40;;;;;;5064020;28;20090;-81
2022/09/02 06:30:31;;;;;;;1.52;0.40;;;18.30;57.50;;;;;;5063305;28;20033;-82
2022/09/02 06:32:57;;;;;;;2.92;0.50;;;18.30;57.40;;;;;;5045773;28;20124;-82
2022/09/02 06:35:23;;;;;;;3.00;0.50;;;18.40;57.20;;;;;;5063834;28;20111;-81
2022/09/02 06:37:48;;;;;;;2.08;0.55;;;18.40;57.00;;;;;;5068356;28;20064;-81
2022/09/02 06:40:15;;;;;;;5.95;0.60;;;18.40;56.90;;;;;;5045271;28;20056;-81
2022/09/02 06:42:41;;;;;;;1.67;0.40;;;18.40;56.80;;;;;;5059494;28;20028;-82
2022/09/02 06:45:07;;;;;;;4.40;0.80;;;18.50;56.70;;;;;;5037072;28;20035;-82
2022/09/02 06:47:33;;;;;;;1.33;0.40;;;18.50;56.60;;;;;;5054788;28;20473;-82
2022/09/02 06:49:59;;;;;;;4.45;0.45;;;18.50;56.60;;;;;;5036818;28;20035;-81
2022/09/02 06:52:25;;;;;;;5.05;0.57;;;18.40;56.60;;;;;;5060320;28;20067;-82
2022/09/02 06:54:53;;;;;;;1.50;0.40;;;18.50;56.70;;;;;;5052901;28;20097;-82
2022/09/02 06:57:20;;;;;;;2.58;0.35;;;18.40;56.60;;;;;;5046489;28;20044;-82
2022/09/02 06:59:46;;;;;;;5.05;0.80;;;18.40;56.70;;;;;;5053278;28;20488;-81
2022/09/02 07:02:12;;;;;;;6.63;0.77;;;18.40;56.70;;;;;;5052685;28;20052;-81
2022/09/02 07:07:24;;;;;;;2.25;0.47;;;18.50;56.90;;;;;;5054301;28;20091;-81
2022/09/02 07:09:50;;;;;;;5.95;0.60;;;18.50;56.90;;;;;;5054821;28;20021;-81
2022/09/02 07:12:17;;;;;;;5.93;0.60;;;18.60;56.90;;;;;;5053503;28;20029;-81
2022/09/02 07:14:43;;;;;;;3.30;0.70;;;18.60;56.80;;;;;;5056988;28;20027;-81
2022/09/02 07:17:16;;;;;;;4.22;0.70;;;18.60;56.70;;;;;;5072695;28;20017;-81
2022/09/02 07:19:43;;;;;;;3.33;0.40;;;18.70;56.70;;;;;;5072658;28;20024;-80
2022/09/02 07:22:09;;;;;;;3.80;0.52;;;18.70;56.70;;;;;;5072789;28;20029;-82
2022/09/02 07:24:40;;;;;;;1.75;0.40;;;18.80;56.60;;;;;;5055361;28;20039;-82
2022/09/02 07:27:06;;;;;;;1.98;0.38;;;18.80;57.20;;;;;;5064463;28;20125;-81
2022/09/02 07:29:33;;;;;;;1.42;0.40;;;18.90;56.60;;;;;;5068504;28;20055;-81
2022/09/02 07:31:59;;;;;;;5.53;0.55;;;18.90;56.60;;;;;;5041014;28;20033;-82
2022/09/02 07:34:24;;;;;;;2.22;0.50;;;19.00;56.70;;;;;;5066839;28;20118;-81
2022/09/02 07:36:51;;;;;;;2.15;0.60;;;19.00;56.60;;;;;;5069528;28;20468;-81
2022/09/02 07:39:18;;;;;;;2.83;0.40;;;19.10;56.60;;;;;;5055616;28;20035;-81
2022/09/02 07:41:47;;;;;;;5.03;0.55;;;19.20;56.50;;;;;;5055815;28;20021;-81
2022/09/02 07:44:14;;;;;;;3.05;0.40;;;19.30;56.50;;;;;;5071949;28;20499;-82
2022/09/02 07:46:40;;;;;;;2.25;0.45;;;19.30;56.40;;;;;;5073392;28;20107;-81
2022/09/02 07:49:09;;;;;;;4.10;0.50;;;19.50;56.50;;;;;;5048968;28;20061;-81
2022/09/02 07:51:37;;;;;;;5.60;0.70;;;19.60;56.50;;;;;;5052033;28;20036;-81
2022/09/02 07:54:04;;;;;;;3.80;0.38;;;19.70;56.40;;;;;;5061517;28;20036;-81
2022/09/02 07:56:30;;;;;;;6.43;0.63;;;19.80;56.30;;;;;;5072692;28;20507;-81
2022/09/02 07:58:55;;;;;;;10.73;0.68;;;20.00;56.30;;;;;;5056942;28;20029;-81
2022/09/02 08:01:21;;;;;;;2.30;0.55;;;20.10;56.10;;;;;;5074224;28;20460;-82
2022/09/02 08:03:47;;;;;;;6.28;0.45;;;20.20;56.00;;;;;;5075407;28;20134;-82
2022/09/02 08:06:13;;;;;;;3.58;0.50;;;20.40;56.00;;;;;;5075027;28;20024;-82
2022/09/02 08:08:40;;;;;;;6.80;0.57;;;20.40;55.70;;;;;;5058112;28;20027;-82
2022/09/02 08:11:06;;;;;;;7.80;0.90;;;20.50;55.60;;;;;;5057103;28;20029;-82
2022/09/02 08:13:32;;;;;;;2.58;0.60;;;20.60;55.40;;;;;;5072618;28;20079;-82
2022/09/02 08:15:57;;;;;;;3.65;0.85;;;20.70;55.30;;;;;;5073369;28;20063;-82
2022/09/02 08:18:23;;;;;;;2.10;0.50;;;20.90;55.20;;;;;;5072601;28;20036;-81
2022/09/02 08:20:49;;;;;;;3.28;0.60;;;20.90;55.00;;;;;;5072766;28;20471;-82
2022/09/02 08:23:16;;;;;;;3.83;0.50;;;21.00;54.80;;;;;;5071761;28;20174;-83
2022/09/02 08:25:42;;;;;;;2.33;0.65;;;21.10;54.70;;;;;;5072112;28;20056;-80
2022/09/02 08:28:08;;;;;;;3.60;0.65;;;21.20;54.40;;;;;;5055049;28;20033;-81
2022/09/02 08:30:34;;;;;;;1.42;0.60;;;21.30;54.10;;;;;;5071852;28;20535;-81
2022/09/02 08:33:00;;;;;;;5.05;0.60;;;21.40;54.10;;;;;;5072277;28;20119;-81
2022/09/02 08:35:26;;;;;;;6.65;0.60;;;21.50;53.80;;;;;;5049011;28;20056;-83
2022/09/02 08:37:51;;;;;;;3.88;0.50;;;21.60;53.70;;;;;;5055945;28;20051;-82
2022/09/02 08:40:20;;;;;;;3.80;0.52;;;21.70;53.60;;;;;;5055612;28;20452;-82
2022/09/02 08:42:54;;;;;;;6.95;0.60;;;21.80;53.40;;;;;;5068063;28;20484;-81
2022/09/02 08:45:26;;;;;;;3.83;0.68;;;21.90;53.20;;;;;;5056185;28;20074;-83
2022/09/02 08:48:15;;;;;;;2.92;0.60;;;22.00;53.00;;;;;;5054728;28;20036;-82
2022/09/02 08:50:44;;;;;;;7.70;0.90;;;22.00;52.80;;;;;;5041075;28;20029;-83
2022/09/02 08:53:36;;;;;;;4.82;0.55;;;22.10;52.60;;;;;;5055036;28;20025;-83
2022/09/02 08:56:04;;;;;;;4.57;0.75;;;22.30;52.60;;;;;;5055179;28;20067;-83
2022/09/02 08:58:42;;;;;;;1.83;0.60;;;22.30;52.50;;;;;;5056240;28;20025;-83
2022/09/02 09:01:32;;;;;;;3.42;0.70;;;22.40;52.50;;;;;;5056110;28;20025;-83
2022/09/02 09:04:13;;;;;;;2.35;0.80;;;22.50;52.30;;;;;;5055288;28;20037;-84
2022/09/02 09:06:55;;;;;;;5.35;0.95;;;22.50;52.20;;;;;;5056322;28;20039;-84
2022/09/02 09:09:54;;;;;;;1.67;0.60;;;22.60;52.20;;;;;;5055217;28;20029;-85
2022/09/02 09:12:46;;;;;;;2.13;0.65;;;22.60;52.10;;;;;;5055443;28;20025;-82
2022/09/02 09:15:30;;;;;;;5.25;0.80;;;22.70;52.10;;;;;;5054892;28;20024;-83
2022/09/02 09:18:01;;;;;;;1.85;0.50;;;22.70;51.90;;;;;;5056649;28;20060;-84
2022/09/02 09:20:41;;;;;;;7.95;0.60;;;22.80;51.90;;;;;;5055922;28;20022;-83
2022/09/02 09:23:32;;;;;;;2.33;0.60;;;22.90;52.00;;;;;;5054895;28;20048;-83
2022/09/02 09:26:15;;;;;;;5.72;1.30;;;23.00;51.90;;;;;;5054733;28;20414;-83
2022/09/02 09:28:46;;;;;;;5.05;0.50;;;23.10;51.80;;;;;;5054923;28;20036;-84
2022/09/02 09:31:21;;;;;;;5.93;1.00;;;23.20;51.60;;;;;;5055035;28;20075;-84
2022/09/02 09:34:13;;;;;;;6.32;0.80;;;23.30;51.50;;;;;;5054661;28;20488;-81
2022/09/02 09:36:53;;;;;;;3.97;0.70;;;23.40;51.30;;;;;;5050655;28;20041;-84
2022/09/02 09:39:30;;;;;;;4.85;0.63;;;23.50;51.10;;;;;;5054740;28;20463;-83
2022/09/02 09:42:13;;;;;;;2.80;0.60;;;23.60;51.00;;;;;;5038214;28;20036;-84
2022/09/02 09:44:44;;;;;;;6.30;1.00;;;23.70;51.00;;;;;;5055438;28;20115;-82
2022/09/02 09:47:18;;;;;;;5.85;0.68;;;23.80;50.80;;;;;;5036434;28;20025;-82
2022/09/02 09:50:04;;;;;;;6.75;0.75;;;24.00;50.70;;;;;;5054940;28;20021;-82
2022/09/02 09:52:30;;;;;;;4.00;0.60;;;24.00;50.50;;;;;;5053842;28;20052;-83
2022/09/02 09:55:14;;;;;;;3.22;0.80;;;24.10;50.30;;;;;;5055865;28;20067;-82
2022/09/02 09:57:43;;;;;;;4.35;0.80;;;24.20;50.20;;;;;;5056029;28;20025;-83
2022/09/02 10:00:20;;;;;;;2.05;0.52;;;24.30;50.10;;;;;;5054222;28;20025;-83
2022/09/02 10:02:53;;;;;;;4.45;0.85;;;24.50;50.10;;;;;;5055335;28;20098;-83
2022/09/02 10:05:25;;;;;;;3.03;0.70;;;24.60;49.90;;;;;;5053995;28;20048;-83
2022/09/02 10:08:22;;;;;;;2.33;0.60;;;24.60;49.70;;;;;;5055103;28;20037;-84
2022/09/02 10:11:03;;;;;;;4.80;0.82;;;24.80;49.60;;;;;;5052552;28;20033;-83
2022/09/02 10:13:34;;;;;;;2.80;0.73;;;25.10;49.40;;;;;;5053710;28;20021;-84
2022/09/02 10:16:06;;;;;;;5.07;1.10;;;25.30;49.10;;;;;;5054359;28;20036;-84
2022/09/02 10:18:44;;;;;;;3.58;0.70;;;25.60;49.00;;;;;;5053893;28;20025;-83
2022/09/02 10:21:58;;;;;;;2.08;0.65;;;25.90;48.70;;;;;;5053753;28;20021;-83
2022/09/02 10:24:35;;;;;;;2.92;0.70;;;26.30;48.20;;;;;;4977220;28;20490;-82
2022/09/02 10:27:10;;;;;;;3.22;0.70;;;26.70;48.20;;;;;;5043521;28;20060;-82
2022/09/02 10:29:43;;;;;;;3.13;0.60;;;27.10;48.10;;;;;;5042597;28;20024;-83
2022/09/02 10:32:11;;;;;;;1.70;0.55;;;27.60;47.90;;;;;;5064183;28;20033;-83
2022/09/02 10:34:55;;;;;;;2.20;0.60;;;28.10;47.40;;;;;;5063435;28;20059;-83
2022/09/02 10:37:23;;;;;;;3.28;0.63;;;28.60;46.70;;;;;;5064522;28;20372;-83
2022/09/02 10:40:01;;;;;;;4.82;0.60;;;29.10;46.40;;;;;;5064620;28;20024;-83
2022/09/02 10:42:57;;;;;;;7.32;0.77;;;29.60;45.70;;;;;;5071493;28;20027;-82
2022/09/02 10:45:23;;;;;;;5.60;0.65;;;30.00;44.70;;;;;;5070083;28;20032;-83
2022/09/02 10:48:13;;;;;;;4.10;0.75;;;30.50;44.70;;;;;;5071240;28;20020;-82
2022/09/02 10:51:04;;;;;;;3.60;0.70;;;30.90;43.90;;;;;;5071860;28;20028;-84
2022/09/02 10:54:12;;;;;;;4.38;0.77;;;31.10;43.10;;;;;;5072259;28;20495;-83
2022/09/02 10:57:10;;;;;;;3.28;1.00;;;31.00;42.90;;;;;;5059827;28;20021;-85
2022/09/02 10:59:47;;;;;;;4.30;0.73;;;30.90;42.90;;;;;;5049997;28;20037;-86
2022/09/02 11:02:24;;;;;;;4.05;0.80;;;30.80;42.60;;;;;;5052621;28;20116;-84
2022/09/02 11:05:14;;;;;;;3.78;0.77;;;30.80;42.40;;;;;;5056908;28;20035;-83
2022/09/02 11:07:48;;;;;;;2.28;0.50;;;30.70;42.20;;;;;;5073104;28;20074;-84
2022/09/02 11:10:30;;;;;;;2.70;0.95;;;30.60;42.10;;;;;;5073066;28;20107;-83
2022/09/02 11:13:23;;;;;;;2.38;0.65;;;30.70;42.00;;;;;;5073176;28;20013;-83
2022/09/02 11:15:51;;;;;;;1.98;0.70;;;30.60;41.80;;;;;;5074142;28;20032;-83
2022/09/02 11:18:21;;;;;;;3.28;0.85;;;30.70;41.90;;;;;;5072198;28;20481;-83
2022/09/02 11:21:29;;;;;;;2.80;0.85;;;30.70;41.90;;;;;;5073886;28;20439;-85
2022/09/02 11:24:01;;;;;;;3.20;0.80;;;30.70;41.80;;;;;;5051737;28;20044;-85
2022/09/02 11:26:45;;;;;;;2.92;0.70;;;30.80;41.70;;;;;;5034470;28;20512;-85
2022/09/02 11:29:13;;;;;;;;;;;30.90;41.30;;;;;;5091705;28;20085;-87
2022/09/02 11:31:47;;;;;;;4.57;0.65;;;30.90;41.30;;;;;;5075825;28;19911;-83
2022/09/02 11:34:25;;;;;;;3.75;0.73;;;31.00;41.40;;;;;;5073291;28;20017;-84
2022/09/02 11:36:51;;;;;;;2.88;0.80;;;31.00;41.40;;;;;;5072071;28;20025;-86
2022/09/02 11:39:39;;;;;;;2.95;0.55;;;31.20;41.30;;;;;;5056309;28;20480;-84
2022/09/02 11:42:20;;;;;;;1.70;0.70;;;31.30;40.60;;;;;;5064338;28;20032;-83
2022/09/02 11:44:57;;;;;;;1.88;0.50;;;31.50;40.80;;;;;;5094692;28;20481;-84
2022/09/02 11:47:26;;;;;;;1.58;0.52;;;31.70;40.60;;;;;;5059025;28;20032;-84
2022/09/02 11:50:24;;;;;;;1.58;0.45;;;31.80;40.00;;;;;;5065069;28;20433;-83
2022/09/02 11:52:52;;;;;;;1.13;0.57;;;32.00;39.10;;;;;;5070092;28;20093;-83
2022/09/02 11:55:36;;;;;;;1.58;0.50;;;32.20;38.90;;;;;;5071147;28;20025;-84
2022/09/02 11:58:01;;;;;;;;;;;32.40;38.30;;;;;;5070232;28;20074;-83
2022/09/02 12:00:54;;;;;;;1.45;0.60;;;32.50;38.50;;;;;;5070634;28;19912;-83
2022/09/02 12:03:22;;;;;;;3.35;0.55;;;32.70;38.50;;;;;;5072092;28;20510;-85
2022/09/02 12:06:02;;;;;;;3.28;0.50;;;32.80;38.10;;;;;;5071676;28;20037;-83
2022/09/02 12:08:31;;;;;;;4.55;0.60;;;33.00;37.70;;;;;;5070713;28;20020;-86
2022/09/02 12:11:00;;;;;;;2.05;0.60;;;33.20;37.50;;;;;;5069971;28;20039;-84
2022/09/02 12:13:39;;;;;;;1.70;0.50;;;33.30;37.20;;;;;;5064194;28;20017;-82
2022/09/02 12:16:11;;;;;;;1.25;0.40;;;33.50;36.70;;;;;;5071067;28;20092;-83
2022/09/02 12:18:38;;;;;;;3.35;0.73;;;33.70;36.70;;;;;;5066536;28;20033;-84
2022/09/02 12:21:06;;;;;;;4.10;0.50;;;33.90;36.70;;;;;;5071038;28;20017;-83
2022/09/02 12:23:53;;;;;;;3.47;0.57;;;34.00;36.40;;;;;;5070560;28;20032;-84
2022/09/02 12:26:49;;;;;;;1.35;0.50;;;34.20;35.70;;;;;;5069235;28;20036;-84
2022/09/02 12:29:18;;;;;;;2.15;0.50;;;34.40;35.80;;;;;;5069267;28;20025;-85
2022/09/02 12:31:46;;;;;;;2.05;0.43;;;34.70;35.30;;;;;;5072678;28;20044;-83
2022/09/02 12:34:32;;;;;;;1.10;0.50;;;34.80;34.80;;;;;;5069661;28;20025;-84
2022/09/02 12:37:03;;;;;;;1.73;0.52;;;35.00;34.10;;;;;;5066702;28;20373;-84
2022/09/02 12:39:34;;;;;;;3.08;0.50;;;35.10;34.30;;;;;;5062485;28;20040;-81
2022/09/02 12:42:16;;;;;;;1.65;0.50;;;35.20;34.10;;;;;;5069980;28;20118;-85
2022/09/02 12:45:05;;;;;;;2.15;0.50;;;35.30;34.20;;;;;;5072141;28;20056;-83
2022/09/02 12:47:37;;;;;;;1.70;0.52;;;35.50;34.10;;;;;;5071268;28;20085;-85
2022/09/02 12:50:15;;;;;;;1.55;0.65;;;35.70;34.00;;;;;;5073982;28;20534;-84
2022/09/02 12:52:44;;;;;;;1.88;0.50;;;35.90;34.00;;;;;;5069875;28;20028;-84
2022/09/02 12:55:17;;;;;;;1.38;0.57;;;36.10;33.80;;;;;;5069572;28;20421;-84
2022/09/02 12:57:45;;;;;;;3.70;0.70;;;36.20;33.50;;;;;;5072080;28;20021;-84
2022/09/02 13:00:23;;;;;;;3.22;0.70;;;36.40;33.50;;;;;;5069857;28;20028;-84
2022/09/02 13:03:05;;;;;;;1.75;0.47;;;36.70;33.40;;;;;;5067237;28;20048;-86
2022/09/02 13:05:53;;;;;;;2.03;0.60;;;36.80;33.00;;;;;;5069336;28;20127;-84
2022/09/02 13:08:37;;;;;;;3.72;0.82;;;36.90;32.80;;;;;;5076179;28;20116;-85
2022/09/02 13:11:24;;;;;;;1.40;0.60;;;37.00;32.20;;;;;;5070302;28;20060;-84
2022/09/02 13:14:08;;;;;;;1.73;0.55;;;36.70;32.30;;;;;;5069164;28;20082;-84